sensor_id;sensor_type;location;lat;lon;timestamp;pressure;altitude;pressure_sealevel;temperature;humidity
35918;BME280;22011;59.912;30.300;2024-03-02T00:00:58;102669.13;;;5.02;66.42
35918;BME280;22011;59.912;30.300;2024-03-02T00:03:27;102676.81;;;5.06;66.22
35918;BME280;22011;59.912;30.300;2024-03-02T00:05:54;102671.84;;;5.00;66.57
35918;BME280;22011;59.912;30.300;2024-03-02T00:08:23;102674.50;;;5.00;66.50
35918;BME280;22011;59.912;30.300;2024-03-02T00:10:57;102672.38;;;5.07;67.37
35918;BME280;22011;59.912;30.300;2024-03-02T00:13:25;102674.66;;;4.97;66.59
35918;BME280;22011;59.912;30.300;2024-03-02T00:15:54;102673.72;;;4.98;66.92
35918;BME280;22011;59.912;30.300;2024-03-02T00:18:30;102674.41;;;5.02;67.09
35918;BME280;22011;59.912;30.300;2024-03-02T00:20:58;102679.25;;;4.93;66.53
35918;BME280;22011;59.912;30.300;2024-03-02T00:23:27;102675.59;;;4.96;66.77
35918;BME280;22011;59.912;30.300;2024-03-02T00:25:57;102673.88;;;4.95;66.66
35918;BME280;22011;59.912;30.300;2024-03-02T00:28:27;102682.34;;;5.02;66.72
35918;BME280;22011;59.912;30.300;2024-03-02T00:30:59;102678.06;;;4.99;67.03
35918;BME280;22011;59.912;30.300;2024-03-02T00:33:32;102679.84;;;4.99;67.62
35918;BME280;22011;59.912;30.300;2024-03-02T00:36:01;102677.88;;;4.86;67.32
35918;BME280;22011;59.912;30.300;2024-03-02T00:38:30;102666.78;;;4.80;67.43
35918;BME280;22011;59.912;30.300;2024-03-02T00:40:59;102670.75;;;4.71;67.67
35918;BME280;22011;59.912;30.300;2024-03-02T00:43:45;102668.94;;;4.89;68.86
35918;BME280;22011;59.912;30.300;2024-03-02T00:46:18;102672.28;;;4.75;68.36
35918;BME280;22011;59.912;30.300;2024-03-02T00:48:55;102667.53;;;4.82;68.69
35918;BME280;22011;59.912;30.300;2024-03-02T00:51:25;102669.97;;;4.69;68.02
35918;BME280;22011;59.912;30.300;2024-03-02T00:53:55;102662.13;;;4.68;68.67
35918;BME280;22011;59.912;30.300;2024-03-02T00:56:23;102666.72;;;4.64;68.59
35918;BME280;22011;59.912;30.300;2024-03-02T00:58:51;102665.03;;;4.63;68.50
35918;BME280;22011;59.912;30.300;2024-03-02T01:01:20;102665.09;;;4.62;68.42
35918;BME280;22011;59.912;30.300;2024-03-02T01:03:48;102659.59;;;4.66;68.78
35918;BME280;22011;59.912;30.300;2024-03-02T01:06:17;102654.22;;;4.68;68.59
35918;BME280;22011;59.912;30.300;2024-03-02T01:08:45;102658.81;;;4.64;68.42
35918;BME280;22011;59.912;30.300;2024-03-02T01:11:17;102669.38;;;4.64;68.35
35918;BME280;22011;59.912;30.300;2024-03-02T01:13:45;102670.13;;;4.66;68.53
35918;BME280;22011;59.912;30.300;2024-03-02T01:16:13;102664.94;;;4.65;68.70
35918;BME280;22011;59.912;30.300;2024-03-02T01:18:42;102665.78;;;4.65;68.75
35918;BME280;22011;59.912;30.300;2024-03-02T01:21:09;102666.56;;;4.67;68.93
35918;BME280;22011;59.912;30.300;2024-03-02T01:23:39;102667.25;;;4.71;68.90
35918;BME280;22011;59.912;30.300;2024-03-02T01:26:07;102669.06;;;4.70;68.59
35918;BME280;22011;59.912;30.300;2024-03-02T01:28:34;102660.97;;;4.73;68.52
35918;BME280;22011;59.912;30.300;2024-03-02T01:31:02;102666.25;;;4.73;68.51
35918;BME280;22011;59.912;30.300;2024-03-02T01:33:30;102667.19;;;4.72;68.13
35918;BME280;22011;59.912;30.300;2024-03-02T01:35:58;102657.47;;;4.73;68.71
35918;BME280;22011;59.912;30.300;2024-03-02T01:38:25;102666.31;;;4.72;68.81
35918;BME280;22011;59.912;30.300;2024-03-02T01:40:56;102657.38;;;4.74;68.69
35918;BME280;22011;59.912;30.300;2024-03-02T01:43:24;102658.41;;;4.72;68.84
35918;BME280;22011;59.912;30.300;2024-03-02T01:45:52;102654.13;;;4.69;68.92
35918;BME280;22011;59.912;30.300;2024-03-02T01:48:20;102651.25;;;4.74;68.59
35918;BME280;22011;59.912;30.300;2024-03-02T01:50:48;102649.38;;;4.76;68.76
35918;BME280;22011;59.912;30.300;2024-03-02T01:53:15;102651.16;;;4.75;68.53
35918;BME280;22011;59.912;30.300;2024-03-02T01:55:43;102642.22;;;4.78;68.71
35918;BME280;22011;59.912;30.300;2024-03-02T01:58:12;102651.78;;;4.80;68.92
35918;BME280;22011;59.912;30.300;2024-03-02T02:00:40;102637.97;;;4.75;68.68
35918;BME280;22011;59.912;30.300;2024-03-02T02:03:08;102643.25;;;4.75;68.89
35918;BME280;22011;59.912;30.300;2024-03-02T02:05:36;102653.81;;;4.75;68.62
35918;BME280;22011;59.912;30.300;2024-03-02T02:08:04;102651.94;;;4.77;68.79
35918;BME280;22011;59.912;30.300;2024-03-02T02:10:32;102660.63;;;4.79;68.94
35918;BME280;22011;59.912;30.300;2024-03-02T02:13:00;102658.94;;;4.78;68.43
35918;BME280;22011;59.912;30.300;2024-03-02T02:15:30;102658.59;;;4.84;68.41
35918;BME280;22011;59.912;30.300;2024-03-02T02:18:01;102665.75;;;4.82;68.58
35918;BME280;22011;59.912;30.300;2024-03-02T02:20:29;102664.06;;;4.81;68.54
35918;BME280;22011;59.912;30.300;2024-03-02T02:22:59;102665.69;;;4.84;69.11
35918;BME280;22011;59.912;30.300;2024-03-02T02:25:28;102669.34;;;4.81;68.71
35918;BME280;22011;59.912;30.300;2024-03-02T02:27:56;102673.69;;;4.82;68.76
35918;BME280;22011;59.912;30.300;2024-03-02T02:30:25;102669.16;;;4.84;68.89
35918;BME280;22011;59.912;30.300;2024-03-02T02:32:53;102668.25;;;4.85;68.43
35918;BME280;22011;59.912;30.300;2024-03-02T02:35:21;102669.09;;;4.86;68.43
35918;BME280;22011;59.912;30.300;2024-03-02T02:37:50;102667.31;;;4.86;68.13
35918;BME280;22011;59.912;30.300;2024-03-02T02:40:21;102670.56;;;4.91;68.73
35918;BME280;22011;59.912;30.300;2024-03-02T02:42:49;102668.94;;;4.89;68.59
35918;BME280;22011;59.912;30.300;2024-03-02T02:45:18;102680.44;;;4.88;68.49
35918;BME280;22011;59.912;30.300;2024-03-02T02:47:45;102683.00;;;4.89;68.36
35918;BME280;22011;59.912;30.300;2024-03-02T02:50:13;102678.63;;;4.88;68.35
35918;BME280;22011;59.912;30.300;2024-03-02T02:52:42;102680.34;;;4.89;68.54
35918;BME280;22011;59.912;30.300;2024-03-02T02:55:11;102680.44;;;4.88;68.25
35918;BME280;22011;59.912;30.300;2024-03-02T02:57:41;102674.13;;;4.90;68.80
35918;BME280;22011;59.912;30.300;2024-03-02T03:00:11;102678.63;;;4.88;68.45
35918;BME280;22011;59.912;30.300;2024-03-02T03:02:41;102677.88;;;4.86;68.46
35918;BME280;22011;59.912;30.300;2024-03-02T03:05:09;102667.13;;;4.89;68.35
35918;BME280;22011;59.912;30.300;2024-03-02T03:07:39;102665.97;;;4.95;68.92
35918;BME280;22011;59.912;30.300;2024-03-02T03:10:07;102664.41;;;4.91;68.42
35918;BME280;22011;59.912;30.300;2024-03-02T03:12:36;102664.50;;;4.89;68.83
35918;BME280;22011;59.912;30.300;2024-03-02T03:15:06;102664.16;;;4.96;68.89
35918;BME280;22011;59.912;30.300;2024-03-02T03:17:34;102667.75;;;4.95;68.58
35918;BME280;22011;59.912;30.300;2024-03-02T03:20:04;102665.03;;;4.96;68.44
35918;BME280;22011;59.912;30.300;2024-03-02T03:22:35;102673.63;;;5.00;68.63
35918;BME280;22011;59.912;30.300;2024-03-02T03:25:04;102663.75;;;5.03;68.13
35918;BME280;22011;59.912;30.300;2024-03-02T03:27:32;102663.69;;;5.05;68.19
35918;BME280;22011;59.912;30.300;2024-03-02T03:30:00;102659.50;;;5.01;68.63
35918;BME280;22011;59.912;30.300;2024-03-02T03:32:29;102666.47;;;5.02;68.39
35918;BME280;22011;59.912;30.300;2024-03-02T03:34:56;102654.22;;;5.01;68.13
35918;BME280;22011;59.912;30.300;2024-03-02T03:37:24;102660.44;;;5.00;68.04
35918;BME280;22011;59.912;30.300;2024-03-02T03:39:58;102656.06;;;4.99;68.40
35918;BME280;22011;59.912;30.300;2024-03-02T03:42:27;102653.53;;;4.97;68.41
35918;BME280;22011;59.912;30.300;2024-03-02T03:44:54;102649.84;;;5.00;68.62
35918;BME280;22011;59.912;30.300;2024-03-02T03:47:22;102648.06;;;5.00;68.65
35918;BME280;22011;59.912;30.300;2024-03-02T03:49:51;102648.59;;;5.07;68.79
35918;BME280;22011;59.912;30.300;2024-03-02T03:52:19;102649.53;;;5.06;68.42
35918;BME280;22011;59.912;30.300;2024-03-02T03:54:47;102652.16;;;5.06;68.19
35918;BME280;22011;59.912;30.300;2024-03-02T03:57:15;102656.53;;;5.07;68.05
35918;BME280;22011;59.912;30.300;2024-03-02T03:59:42;102655.75;;;5.05;68.22
35918;BME280;22011;59.912;30.300;2024-03-02T04:02:10;102655.84;;;5.03;68.02
35918;BME280;22011;59.912;30.300;2024-03-02T04:04:39;102652.34;;;5.03;68.43
35918;BME280;22011;59.912;30.300;2024-03-02T04:07:08;102651.22;;;5.07;68.48
35918;BME280;22011;59.912;30.300;2024-03-02T04:09:35;102650.63;;;5.02;68.29
35918;BME280;22011;59.912;30.300;2024-03-02T04:12:04;102650.63;;;5.02;68.30
35918;BME280;22011;59.912;30.300;2024-03-02T04:14:31;102654.03;;;5.04;68.53
35918;BME280;22011;59.912;30.300;2024-03-02T04:16:59;102649.69;;;5.03;68.47
35918;BME280;22011;59.912;30.300;2024-03-02T04:19:27;102646.13;;;5.04;68.64
35918;BME280;22011;59.912;30.300;2024-03-02T04:21:54;102650.38;;;5.06;68.56
35918;BME280;22011;59.912;30.300;2024-03-02T04:24:23;102653.63;;;5.11;68.19
35918;BME280;22011;59.912;30.300;2024-03-02T04:26:51;102650.28;;;5.08;68.19
35918;BME280;22011;59.912;30.300;2024-03-02T04:29:19;102651.31;;;5.05;68.51
35918;BME280;22011;59.912;30.300;2024-03-02T04:31:46;102645.94;;;5.07;68.26
35918;BME280;22011;59.912;30.300;2024-03-02T04:34:14;102656.44;;;5.08;68.16
35918;BME280;22011;59.912;30.300;2024-03-02T04:36:42;102651.91;;;5.10;68.17
35918;BME280;22011;59.912;30.300;2024-03-02T04:39:09;102657.19;;;5.10;67.88
35918;BME280;22011;59.912;30.300;2024-03-02T04:41:38;102657.03;;;5.13;68.29
35918;BME280;22011;59.912;30.300;2024-03-02T04:44:06;102654.56;;;5.10;68.01
35918;BME280;22011;59.912;30.300;2024-03-02T04:46:34;102647.56;;;5.09;68.05
35918;BME280;22011;59.912;30.300;2024-03-02T04:49:02;102652.84;;;5.09;68.04
35918;BME280;22011;59.912;30.300;2024-03-02T04:51:29;102650.13;;;5.11;68.30
35918;BME280;22011;59.912;30.300;2024-03-02T04:53:57;102653.72;;;5.10;67.76
35918;BME280;22011;59.912;30.300;2024-03-02T04:56:24;102653.63;;;5.11;68.06
35918;BME280;22011;59.912;30.300;2024-03-02T04:59:08;102657.72;;;5.17;68.05
35918;BME280;22011;59.912;30.300;2024-03-02T05:01:35;102655.41;;;5.11;67.86
35918;BME280;22011;59.912;30.300;2024-03-02T05:04:03;102667.59;;;5.13;67.98
35918;BME280;22011;59.912;30.300;2024-03-02T05:06:31;102657.97;;;5.12;67.82
35918;BME280;22011;59.912;30.300;2024-03-02T05:08:58;102655.25;;;5.14;68.07
35918;BME280;22011;59.912;30.300;2024-03-02T05:11:26;102665.66;;;5.17;67.73
35918;BME280;22011;59.912;30.300;2024-03-02T05:14:18;102659.91;;;5.24;68.11
35918;BME280;22011;59.912;30.300;2024-03-02T05:16:45;102657.72;;;5.17;68.00
35918;BME280;22011;59.912;30.300;2024-03-02T05:19:13;102664.81;;;5.16;67.75
35918;BME280;22011;59.912;30.300;2024-03-02T05:21:41;102658.50;;;5.19;67.82
35918;BME280;22011;59.912;30.300;2024-03-02T05:24:08;102660.38;;;5.17;67.63
35918;BME280;22011;59.912;30.300;2024-03-02T05:26:36;102664.13;;;5.13;67.75
35918;BME280;22011;59.912;30.300;2024-03-02T05:29:04;102663.25;;;5.12;67.99
35918;BME280;22011;59.912;30.300;2024-03-02T05:31:33;102666.66;;;5.14;68.47
35918;BME280;22011;59.912;30.300;2024-03-02T05:34:01;102669.31;;;5.14;68.20
35918;BME280;22011;59.912;30.300;2024-03-02T05:36:29;102662.25;;;5.15;68.03
35918;BME280;22011;59.912;30.300;2024-03-02T05:38:56;102663.94;;;5.16;68.36
35918;BME280;22011;59.912;30.300;2024-03-02T05:41:24;102662.25;;;5.15;68.50
35918;BME280;22011;59.912;30.300;2024-03-02T05:43:52;102660.44;;;5.15;68.29
35918;BME280;22011;59.912;30.300;2024-03-02T05:46:19;102663.94;;;5.16;68.25
35918;BME280;22011;59.912;30.300;2024-03-02T05:48:48;102661.22;;;5.17;68.34
35918;BME280;22011;59.912;30.300;2024-03-02T05:51:16;102663.25;;;5.12;68.59
35918;BME280;22011;59.912;30.300;2024-03-02T05:53:43;102659.75;;;5.12;68.45
35918;BME280;22011;59.912;30.300;2024-03-02T05:56:11;102673.81;;;5.12;68.21
35918;BME280;22011;59.912;30.300;2024-03-02T05:58:40;102672.81;;;5.15;68.90
35918;BME280;22011;59.912;30.300;2024-03-02T06:01:19;102675.53;;;5.13;68.48
35918;BME280;22011;59.912;30.300;2024-03-02T06:03:50;102664.81;;;5.16;68.77
35918;BME280;22011;59.912;30.300;2024-03-02T06:06:17;102663.34;;;5.11;68.67
35918;BME280;22011;59.912;30.300;2024-03-02T06:08:48;102664.72;;;5.18;68.16
35918;BME280;22011;59.912;30.300;2024-03-02T06:11:16;102674.16;;;5.22;68.33
35918;BME280;22011;59.912;30.300;2024-03-02T06:13:44;102668.00;;;5.21;68.58
35918;BME280;22011;59.912;30.300;2024-03-02T06:16:11;102670.78;;;5.20;68.52
35918;BME280;22011;59.912;30.300;2024-03-02T06:18:40;102671.72;;;5.19;68.27
35918;BME280;22011;59.912;30.300;2024-03-02T06:21:09;102672.09;;;5.27;68.43
35918;BME280;22011;59.912;30.300;2024-03-02T06:23:36;102670.31;;;5.28;68.14
35918;BME280;22011;59.912;30.300;2024-03-02T06:26:04;102680.81;;;5.29;68.38
35918;BME280;22011;59.912;30.300;2024-03-02T06:28:31;102677.41;;;5.27;68.18
35918;BME280;22011;59.912;30.300;2024-03-02T06:31:01;102679.25;;;5.25;68.13
35918;BME280;22011;59.912;30.300;2024-03-02T06:33:29;102670.41;;;5.26;68.08
35918;BME280;22011;59.912;30.300;2024-03-02T06:35:57;102667.75;;;5.26;68.40
35918;BME280;22011;59.912;30.300;2024-03-02T06:38:26;102676.44;;;5.28;68.33
35918;BME280;22011;59.912;30.300;2024-03-02T06:40:54;102675.44;;;5.31;68.16
35918;BME280;22011;59.912;30.300;2024-03-02T06:43:22;102672.03;;;5.29;67.74
35918;BME280;22011;59.912;30.300;2024-03-02T06:45:50;102675.69;;;5.26;68.05
35918;BME280;22011;59.912;30.300;2024-03-02T06:48:18;102680.97;;;5.26;68.01
35918;BME280;22011;59.912;30.300;2024-03-02T06:50:46;102677.41;;;5.27;68.25
35918;BME280;22011;59.912;30.300;2024-03-02T06:53:14;102678.16;;;5.29;68.06
35918;BME280;22011;59.912;30.300;2024-03-02T06:55:45;102678.06;;;5.31;68.34
35918;BME280;22011;59.912;30.300;2024-03-02T06:58:13;102680.97;;;5.26;68.51
35918;BME280;22011;59.912;30.300;2024-03-02T07:00:42;102681.91;;;5.25;67.91
35918;BME280;22011;59.912;30.300;2024-03-02T07:03:10;102687.09;;;5.26;67.90
35918;BME280;22011;59.912;30.300;2024-03-02T07:05:38;102679.94;;;5.29;67.78
35918;BME280;22011;59.912;30.300;2024-03-02T07:08:06;102680.03;;;5.27;67.90
35918;BME280;22011;59.912;30.300;2024-03-02T07:10:34;102675.69;;;5.26;67.99
35918;BME280;22011;59.912;30.300;2024-03-02T07:13:03;102680.72;;;5.31;68.21
35918;BME280;22011;59.912;30.300;2024-03-02T07:15:31;102674.75;;;5.27;68.21
35918;BME280;22011;59.912;30.300;2024-03-02T07:18:20;102670.16;;;5.31;67.87
35918;BME280;22011;59.912;30.300;2024-03-02T07:20:48;102675.19;;;5.35;67.85
35918;BME280;22011;59.912;30.300;2024-03-02T07:23:16;102673.13;;;5.40;67.53
35918;BME280;22011;59.912;30.300;2024-03-02T07:25:43;102673.22;;;5.39;67.20
35918;BME280;22011;59.912;30.300;2024-03-02T07:28:13;102669.63;;;5.40;67.85
35918;BME280;22011;59.912;30.300;2024-03-02T07:30:40;102680.47;;;5.35;67.32
35918;BME280;22011;59.912;30.300;2024-03-02T07:33:08;102672.63;;;5.34;67.56
35918;BME280;22011;59.912;30.300;2024-03-02T07:35:37;102677.06;;;5.33;67.64
35918;BME280;22011;59.912;30.300;2024-03-02T07:38:04;102675.44;;;5.31;67.80
35918;BME280;22011;59.912;30.300;2024-03-02T07:40:32;102680.56;;;5.34;67.67
35918;BME280;22011;59.912;30.300;2024-03-02T07:43:00;102681.41;;;5.34;67.67
35918;BME280;22011;59.912;30.300;2024-03-02T07:45:29;102680.03;;;5.43;67.97
35918;BME280;22011;59.912;30.300;2024-03-02T07:47:56;102681.56;;;5.31;67.25
35918;BME280;22011;59.912;30.300;2024-03-02T07:50:24;102682.59;;;5.29;68.13
35918;BME280;22011;59.912;30.300;2024-03-02T07:52:52;102684.22;;;5.31;68.33
35918;BME280;22011;59.912;30.300;2024-03-02T07:55:19;102684.56;;;5.25;68.52
35918;BME280;22011;59.912;30.300;2024-03-02T07:57:47;102687.97;;;5.27;68.28
35918;BME280;22011;59.912;30.300;2024-03-02T08:00:15;102690.53;;;5.29;67.98
35918;BME280;22011;59.912;30.300;2024-03-02T08:02:45;102685.91;;;5.32;68.28
35918;BME280;22011;59.912;30.300;2024-03-02T08:05:12;102687.72;;;5.32;68.36
35918;BME280;22011;59.912;30.300;2024-03-02T08:07:40;102679.78;;;5.32;68.19
35918;BME280;22011;59.912;30.300;2024-03-02T08:10:09;102683.19;;;5.34;68.20
35918;BME280;22011;59.912;30.300;2024-03-02T08:12:36;102682.19;;;5.36;68.34
35918;BME280;22011;59.912;30.300;2024-03-02T08:15:06;102683.72;;;5.40;68.23
35918;BME280;22011;59.912;30.300;2024-03-02T08:17:33;102680.13;;;5.41;68.32
35918;BME280;22011;59.912;30.300;2024-03-02T08:20:03;102678.25;;;5.43;68.51
35918;BME280;22011;59.912;30.300;2024-03-02T08:22:31;102683.53;;;5.43;68.49
35918;BME280;22011;59.912;30.300;2024-03-02T08:24:59;102679.19;;;5.42;68.71
35918;BME280;22011;59.912;30.300;2024-03-02T08:27:26;102679.09;;;5.44;68.24
35918;BME280;22011;59.912;30.300;2024-03-02T08:29:54;102678.25;;;5.43;68.37
35918;BME280;22011;59.912;30.300;2024-03-02T08:32:22;102686.34;;;5.40;68.64
35918;BME280;22011;59.912;30.300;2024-03-02T08:34:50;102686.19;;;5.43;68.08
35918;BME280;22011;59.912;30.300;2024-03-02T08:37:19;102700.94;;;5.47;68.53
35918;BME280;22011;59.912;30.300;2024-03-02T08:39:46;102693.25;;;5.43;68.64
35918;BME280;22011;59.912;30.300;2024-03-02T08:42:14;102693.19;;;5.44;68.98
35918;BME280;22011;59.912;30.300;2024-03-02T08:44:42;102700.94;;;5.47;68.89
35918;BME280;22011;59.912;30.300;2024-03-02T08:47:10;102699.91;;;5.50;68.29
35918;BME280;22011;59.912;30.300;2024-03-02T08:49:38;102696.41;;;5.49;68.60
35918;BME280;22011;59.912;30.300;2024-03-02T08:52:06;102692.91;;;5.49;68.17
35918;BME280;22011;59.912;30.300;2024-03-02T08:54:35;102692.91;;;5.49;68.15
35918;BME280;22011;59.912;30.300;2024-03-02T08:57:04;102703.59;;;5.47;67.98
35918;BME280;22011;59.912;30.300;2024-03-02T08:59:33;102702.81;;;5.45;68.28
35918;BME280;22011;59.912;30.300;2024-03-02T09:02:01;102695.13;;;5.41;68.05
35918;BME280;22011;59.912;30.300;2024-03-02T09:04:28;102695.38;;;5.36;68.89
35918;BME280;22011;59.912;30.300;2024-03-02T09:06:56;102693.78;;;5.34;68.98
35918;BME280;22011;59.912;30.300;2024-03-02T09:09:24;102697.34;;;5.33;68.94
35918;BME280;22011;59.912;30.300;2024-03-02T09:11:53;102697.00;;;5.39;69.10
35918;BME280;22011;59.912;30.300;2024-03-02T09:14:24;102692.66;;;5.38;69.40
35918;BME280;22011;59.912;30.300;2024-03-02T09:16:51;102692.66;;;5.38;69.37
35918;BME280;22011;59.912;30.300;2024-03-02T09:19:19;102701.44;;;5.38;69.33
35918;BME280;22011;59.912;30.300;2024-03-02T09:21:47;102697.88;;;5.39;69.41
35918;BME280;22011;59.912;30.300;2024-03-02T09:24:14;102695.06;;;5.42;69.15
35918;BME280;22011;59.912;30.300;2024-03-02T09:26:42;102694.13;;;5.43;68.95
35918;BME280;22011;59.912;30.300;2024-03-02T09:29:11;102693.94;;;5.46;68.95
35918;BME280;22011;59.912;30.300;2024-03-02T09:31:39;102685.06;;;5.47;69.01
35918;BME280;22011;59.912;30.300;2024-03-02T09:34:06;102692.06;;;5.48;68.63
35918;BME280;22011;59.912;30.300;2024-03-02T09:36:34;102687.47;;;5.52;68.56
35918;BME280;22011;59.912;30.300;2024-03-02T09:39:02;102681.25;;;5.53;68.39
35918;BME280;22011;59.912;30.300;2024-03-02T09:41:30;102690.97;;;5.52;68.81
35918;BME280;22011;59.912;30.300;2024-03-02T09:43:58;102688.22;;;5.54;68.79
35918;BME280;22011;59.912;30.300;2024-03-02T09:46:27;102686.09;;;5.61;69.06
35918;BME280;22011;59.912;30.300;2024-03-02T09:48:55;102683.28;;;5.64;68.78
35918;BME280;22011;59.912;30.300;2024-03-02T09:51:23;102681.31;;;5.67;68.74
35918;BME280;22011;59.912;30.300;2024-03-02T09:53:51;102688.13;;;5.71;68.69
35918;BME280;22011;59.912;30.300;2024-03-02T09:56:20;102689.69;;;5.75;68.19
35918;BME280;22011;59.912;30.300;2024-03-02T09:58:48;102680.78;;;5.76;68.25
35918;BME280;22011;59.912;30.300;2024-03-02T10:01:16;102687.72;;;5.79;67.88
35918;BME280;22011;59.912;30.300;2024-03-02T10:03:45;102685.34;;;5.90;68.27
35918;BME280;22011;59.912;30.300;2024-03-02T10:06:20;102674.41;;;5.96;67.94
35918;BME280;22011;59.912;30.300;2024-03-02T10:08:48;102672.97;;;5.90;67.16
35918;BME280;22011;59.912;30.300;2024-03-02T10:11:27;102666.50;;;6.10;68.09
35918;BME280;22011;59.912;30.300;2024-03-02T10:14:05;102672.56;;;6.12;67.74
35918;BME280;22011;59.912;30.300;2024-03-02T10:16:35;102683.19;;;5.97;67.47
35918;BME280;22011;59.912;30.300;2024-03-02T10:19:18;102684.50;;;6.19;67.95
35918;BME280;22011;59.912;30.300;2024-03-02T10:21:46;102681.63;;;6.08;66.86
35918;BME280;22011;59.912;30.300;2024-03-02T10:24:14;102678.88;;;6.10;67.15
35918;BME280;22011;59.912;30.300;2024-03-02T10:26:41;102682.97;;;6.15;66.58
35918;BME280;22011;59.912;30.300;2024-03-02T10:29:10;102682.13;;;6.15;66.52
35918;BME280;22011;59.912;30.300;2024-03-02T10:31:38;102682.97;;;6.15;66.40
35918;BME280;22011;59.912;30.300;2024-03-02T10:34:05;102674.94;;;6.17;65.75
35918;BME280;22011;59.912;30.300;2024-03-02T10:36:35;102678.81;;;6.26;66.35
35918;BME280;22011;59.912;30.300;2024-03-02T10:39:03;102679.56;;;6.28;66.03
35918;BME280;22011;59.912;30.300;2024-03-02T10:41:33;102680.06;;;6.34;66.16
35918;BME280;22011;59.912;30.300;2024-03-02T10:44:02;102684.22;;;6.38;65.84
35918;BME280;22011;59.912;30.300;2024-03-02T10:46:32;102677.72;;;6.44;65.15
35918;BME280;22011;59.912;30.300;2024-03-02T10:49:01;102673.66;;;6.52;65.75
35918;BME280;22011;59.912;30.300;2024-03-02T10:51:31;102677.16;;;6.53;64.96
35918;BME280;22011;59.912;30.300;2024-03-02T10:54:01;102685.50;;;6.61;65.50
35918;BME280;22011;59.912;30.300;2024-03-02T10:56:30;102682.28;;;6.56;65.30
35918;BME280;22011;59.912;30.300;2024-03-02T10:59:02;102677.56;;;6.75;64.76
35918;BME280;22011;59.912;30.300;2024-03-02T11:01:32;102671.63;;;6.72;64.33
35918;BME280;22011;59.912;30.300;2024-03-02T11:04:02;102680.13;;;6.77;63.83
35918;BME280;22011;59.912;30.300;2024-03-02T11:06:32;102667.94;;;6.74;63.59
35918;BME280;22011;59.912;30.300;2024-03-02T11:09:06;102670.47;;;6.76;64.11
35918;BME280;22011;59.912;30.300;2024-03-02T11:11:37;102661.69;;;6.75;64.60
35918;BME280;22011;59.912;30.300;2024-03-02T11:14:06;102659.41;;;6.69;64.32
35918;BME280;22011;59.912;30.300;2024-03-02T11:16:36;102670.56;;;6.74;64.46
35918;BME280;22011;59.912;30.300;2024-03-02T11:19:06;102665.75;;;6.81;63.76
35918;BME280;22011;59.912;30.300;2024-03-02T11:21:35;102662.06;;;6.83;63.20
35918;BME280;22011;59.912;30.300;2024-03-02T11:24:32;102666.97;;;7.04;64.30
35918;BME280;22011;59.912;30.300;2024-03-02T11:27:01;102666.31;;;6.86;63.67
35918;BME280;22011;59.912;30.300;2024-03-02T11:29:46;102679.66;;;6.99;65.43
35918;BME280;22011;59.912;30.300;2024-03-02T11:32:16;102670.97;;;6.82;64.04
35918;BME280;22011;59.912;30.300;2024-03-02T11:34:46;102677.19;;;6.81;64.12
35918;BME280;22011;59.912;30.300;2024-03-02T11:37:16;102674.25;;;6.72;64.31
35918;BME280;22011;59.912;30.300;2024-03-02T11:39:47;102677.38;;;6.78;64.29
35918;BME280;22011;59.912;30.300;2024-03-02T11:42:17;102674.06;;;6.75;64.32
35918;BME280;22011;59.912;30.300;2024-03-02T11:44:46;102676.81;;;6.73;64.40
35918;BME280;22011;59.912;30.300;2024-03-02T11:47:15;102674.16;;;6.73;64.55
35918;BME280;22011;59.912;30.300;2024-03-02T11:49:45;102676.06;;;6.71;64.57
35918;BME280;22011;59.912;30.300;2024-03-02T11:52:13;102674.25;;;6.72;64.19
35918;BME280;22011;59.912;30.300;2024-03-02T11:54:43;102675.41;;;6.82;63.87
35918;BME280;22011;59.912;30.300;2024-03-02T11:57:17;102679.47;;;6.87;63.69
35918;BME280;22011;59.912;30.300;2024-03-02T11:59:45;102679.38;;;6.89;63.35
35918;BME280;22011;59.912;30.300;2024-03-02T12:02:15;102675.13;;;6.86;64.23
35918;BME280;22011;59.912;30.300;2024-03-02T12:04:44;102676.34;;;6.81;63.68
35918;BME280;22011;59.912;30.300;2024-03-02T12:07:18;102667.56;;;6.95;64.21
35918;BME280;22011;59.912;30.300;2024-03-02T12:09:47;102672.28;;;6.89;63.02
35918;BME280;22011;59.912;30.300;2024-03-02T12:12:16;102667.38;;;6.98;62.77
35918;BME280;22011;59.912;30.300;2024-03-02T12:14:51;102662.34;;;7.07;62.63
35918;BME280;22011;59.912;30.300;2024-03-02T12:17:19;102668.88;;;7.02;61.84
35918;BME280;22011;59.912;30.300;2024-03-02T12:19:47;102666.22;;;7.02;61.94
35918;BME280;22011;59.912;30.300;2024-03-02T12:22:14;102670.56;;;7.03;62.17
35918;BME280;22011;59.912;30.300;2024-03-02T12:24:43;102672.47;;;7.01;62.42
35918;BME280;22011;59.912;30.300;2024-03-02T12:27:12;102664.53;;;7.01;62.45
35918;BME280;22011;59.912;30.300;2024-03-02T12:29:42;102665.09;;;7.06;62.11
35918;BME280;22011;59.912;30.300;2024-03-02T12:32:10;102671.34;;;7.05;62.09
35918;BME280;22011;59.912;30.300;2024-03-02T12:34:38;102656.19;;;7.07;61.97
35918;BME280;22011;59.912;30.300;2024-03-02T12:37:06;102661.50;;;7.07;62.25
35918;BME280;22011;59.912;30.300;2024-03-02T12:39:33;102658.84;;;7.07;62.02
35918;BME280;22011;59.912;30.300;2024-03-02T12:42:02;102658.66;;;7.10;61.81
35918;BME280;22011;59.912;30.300;2024-03-02T12:44:30;102668.03;;;7.01;61.75
35918;BME280;22011;59.912;30.300;2024-03-02T12:46:59;102667.16;;;7.01;62.60
35918;BME280;22011;59.912;30.300;2024-03-02T12:49:27;102665.47;;;7.00;61.97
35918;BME280;22011;59.912;30.300;2024-03-02T12:51:57;102664.53;;;7.01;62.38
35918;BME280;22011;59.912;30.300;2024-03-02T12:54:25;102661.69;;;7.04;62.18
35918;BME280;22011;59.912;30.300;2024-03-02T12:56:53;102657.03;;;7.07;61.55
35918;BME280;22011;59.912;30.300;2024-03-02T12:59:23;102653.16;;;7.13;61.21